Detall de PIREP

Printer-friendly versionPDF version

[2010/09/11 09:22:00]
Flight IATA:CT2203
Pilot Number:026
Company ICAO:CAT
Aircraft Type:DC85/A
PAX:136
Departing Airport: LFBD
Destination Airport: LFMP
Alternate Airport:LFBO
Online: VATSIM
Route:SAU G39 BRUSC A27 SIJAN
Flight Level:FL190
No Slew and time accel
No pause
Crash detect
Detect pilot in Cockpit between each 30 and 45 minutes
09:22 Zero fuel Weight: 184027 Lbs, Fuel Weight: 24014 Lbs
09:22 VATSIM:LFBD 110900Z 08006KT 060V120 CAVOK 21/13 Q1018 NOSIG
09:22 VATSIM:LFMP 110900Z 09005KT 050V160 CAVOK 23/09 Q1018 NOSIG
09:22 VOICE CATALONIAN / IATA CT2203
09:34 Parking Brakes off
09:41 Take-off
09:41 Take off Weight: 206976 Lbs
09:41 Wind: 094º @ 006 Knots Heading: 286º
09:41 POS N44º 49´ 47´´ W000º 43´ 23´´
09:41 Gear Up: 171 Knots
09:41 Flaps:2 at 171 Knots
09:43 Flaps:1 at 203 Knots
09:43 Flaps:0 at 207 Knots
09:47 TOC
09:47 Fuel Weight: 20502 Lb
09:56 Wind:104º@024 Knots Heading: 116º Ground Speed: 402 Knots Altitude 19238 ft
10:11 Wind:073º@019 Knots Heading: 103º Ground Speed: 409 Knots Altitude 19245 ft
10:12 TOD
10:12 Fuel Weight: 14660 Lb
10:23 Flaps:1 at 276 Knots
10:24 Flaps:2 at 226 Knots
10:26 Wind:066º@007 Knots Heading: 283º Ground Speed: 172 Knots Altitude 2093 ft
10:27 Flaps:3 at 193 Knots
10:27 Gear Down: 188 Knots
10:28 Flaps:4 at 166 Knots
10:28 Flaps:5 at 148 Knots
10:29 TouchDown:Rate -298 ft/min Speed: 126 Knots
10:30 VATSIM:LFMP 111000Z 05007KT 020V080 CAVOK 24/09 Q1018 NOSIG
10:30 Land
10:30 Wind:056º@007 Knots
10:30 Heading: 328º
10:30 Flight Duration: 00:49
10:30 Landing Weight: 196992 Lbs
10:30 POS N42º 44´ 56´´ E002º 51´ 57´´
10:35 Parking brakes on
10:35 Block to Block Duration: 01:01
10:35 Final Fuel: 12497 Lbls
10:35 Spent Fuel: 11516 Lbls
10:35 Flight Length: 277 NM
10:35 TOD Land Length: 80 NM

Exportar CSV

Powered by Drupal - Modified by Danger4k